Time;durP1;ratioP1;P1;durP2;ratioP2;P2;SDS_P1;SDS_P2;PMS_P1;PMS_P2;Temp;Humidity;BMP_temperature;BMP_pressure;BME280_temperature;BME280_humidity;BME280_pressure;Samples;Min_cycle;Max_cycle;Signal;HPM_P1;HPM_P2
2021/12/22 00:00:30;;;;;;;15.52;9.40;;;2.60;77.10;;;;;;5108216;27;20383;-90
2021/12/22 00:03:11;;;;;;;16.95;9.73;;;2.70;77.10;;;;;;5092728;28;20008;-90
2021/12/22 00:05:44;;;;;;;15.73;9.55;;;2.70;77.20;;;;;;5085799;28;20040;-86
2021/12/22 00:08:12;;;;;;;16.83;9.85;;;2.70;77.00;;;;;;5093675;28;20020;-86
2021/12/22 00:10:38;;;;;;;14.40;9.05;;;2.60;77.10;;;;;;5089281;28;20111;-85
2021/12/22 00:13:04;;;;;;;16.15;9.73;;;2.60;77.20;;;;;;5077462;28;20110;-87
2021/12/22 00:15:30;;;;;;;14.75;8.75;;;2.70;77.20;;;;;;5084079;28;20081;-85
2021/12/22 00:17:55;;;;;;;14.75;9.48;;;2.60;77.10;;;;;;5082192;28;20099;-84
2021/12/22 00:20:21;;;;;;;16.00;9.60;;;2.70;77.20;;;;;;5082086;28;20745;-85
2021/12/22 00:22:46;;;;;;;11.70;6.90;;;2.60;77.10;;;;;;5095527;28;20055;-85
2021/12/22 00:25:12;;;;;;;15.88;9.60;;;2.60;77.20;;;;;;5087971;28;20027;-84
2021/12/22 00:27:38;;;;;;;15.50;9.77;;;2.60;77.20;;;;;;5085106;28;20077;-83
2021/12/22 00:30:06;;;;;;;13.98;9.40;;;2.60;77.20;;;;;;5097503;28;20080;-83
2021/12/22 00:32:33;;;;;;;15.05;8.73;;;2.60;77.20;;;;;;5090925;28;20019;-84
2021/12/22 00:34:59;;;;;;;15.02;9.00;;;2.60;77.20;;;;;;5088944;28;20042;-83
2021/12/22 00:37:27;;;;;;;15.70;9.32;;;2.60;77.20;;;;;;5098971;28;20036;-84
2021/12/22 00:39:53;;;;;;;15.00;8.90;;;2.50;77.20;;;;;;5100351;28;20035;-84
2021/12/22 00:42:20;;;;;;;13.75;8.80;;;2.50;77.20;;;;;;5097488;28;20471;-85
2021/12/22 00:44:50;;;;;;;15.23;9.93;;;2.50;77.30;;;;;;5091012;28;20016;-83
2021/12/22 00:47:17;;;;;;;16.25;8.88;;;2.60;77.30;;;;;;5089247;28;20024;-83
2021/12/22 00:49:43;;;;;;;14.27;9.20;;;2.60;77.20;;;;;;5093714;28;20031;-83
2021/12/22 00:52:08;;;;;;;14.95;9.68;;;2.60;77.20;;;;;;5089088;28;20024;-86
2021/12/22 00:54:34;;;;;;;15.48;9.45;;;2.70;77.10;;;;;;5092522;28;20471;-82
2021/12/22 00:57:05;;;;;;;17.40;10.20;;;2.70;77.00;;;;;;5092208;28;20028;-83
2021/12/22 00:59:34;;;;;;;14.88;8.70;;;2.60;76.90;;;;;;5095871;28;20032;-83
2021/12/22 01:02:02;;;;;;;16.33;9.25;;;2.60;76.90;;;;;;5092992;28;20023;-83
2021/12/22 01:04:27;;;;;;;16.92;10.07;;;2.60;76.90;;;;;;5097902;28;20042;-83
2021/12/22 01:06:53;;;;;;;16.98;9.60;;;2.60;77.00;;;;;;5085607;28;20554;-83
2021/12/22 01:09:19;;;;;;;16.45;9.55;;;2.60;76.90;;;;;;5086448;28;20059;-82
2021/12/22 01:11:45;;;;;;;13.15;9.07;;;2.60;76.90;;;;;;5079489;28;20034;-82
2021/12/22 01:14:11;;;;;;;13.40;8.90;;;2.60;76.80;;;;;;5087303;28;20398;-84
2021/12/22 01:16:37;;;;;;;19.25;10.38;;;2.60;76.80;;;;;;5068727;28;20501;-83
2021/12/22 01:19:08;;;;;;;13.70;8.70;;;2.60;77.00;;;;;;5070521;28;20024;-82
2021/12/22 01:21:39;;;;;;;12.97;8.07;;;2.60;77.00;;;;;;5082778;28;20073;-83
2021/12/22 01:26:56;;;;;;;16.35;9.80;;;2.60;77.20;;;;;;5082770;28;20399;-82
2021/12/22 01:29:21;;;;;;;14.05;9.20;;;2.60;77.20;;;;;;5070313;28;20082;-82
2021/12/22 01:31:47;;;;;;;14.55;9.05;;;2.60;77.10;;;;;;5075417;28;20436;-81
2021/12/22 01:34:13;;;;;;;13.50;8.77;;;2.50;76.90;;;;;;5089561;28;20055;-82
2021/12/22 01:36:39;;;;;;;13.57;9.07;;;2.50;76.90;;;;;;5083662;28;20107;-82
2021/12/22 01:39:05;;;;;;;14.68;8.80;;;2.50;76.80;;;;;;5089000;28;20052;-82
2021/12/22 01:41:31;;;;;;;11.20;6.13;;;2.50;76.90;;;;;;5096368;28;20767;-82
2021/12/22 01:43:57;;;;;;;13.48;8.10;;;2.40;76.90;;;;;;5097372;28;20019;-82
2021/12/22 01:49:10;;;;;;;15.70;8.88;;;2.40;77.00;;;;;;5091191;28;20023;-81
2021/12/22 01:51:39;;;;;;;19.15;11.40;;;2.40;77.10;;;;;;5086251;28;20039;-81
2021/12/22 01:54:11;;;;;;;17.55;10.35;;;2.40;77.00;;;;;;5097172;28;20070;-82
2021/12/22 01:56:37;;;;;;;13.30;7.70;;;2.30;77.00;;;;;;5091450;28;20042;-82
2021/12/22 01:59:07;;;;;;;16.17;9.93;;;2.30;77.10;;;;;;5083496;28;20024;-82
2021/12/22 02:01:34;;;;;;;14.80;8.95;;;2.30;77.20;;;;;;5080541;28;20047;-81
2021/12/22 02:04:00;;;;;;;14.30;8.32;;;2.30;77.30;;;;;;5081951;28;20035;-82
2021/12/22 02:06:27;;;;;;;18.38;11.00;;;2.30;77.30;;;;;;5090917;28;20032;-81
2021/12/22 02:08:54;;;;;;;16.77;9.43;;;2.20;77.20;;;;;;5093979;28;20563;-82
2021/12/22 02:11:20;;;;;;;14.32;9.05;;;2.20;77.40;;;;;;5095473;28;20389;-83
2021/12/22 02:13:52;;;;;;;16.85;9.82;;;2.20;77.40;;;;;;5098853;28;20023;-82
2021/12/22 02:16:25;;;;;;;13.20;7.30;;;2.20;77.50;;;;;;5101419;28;20050;-83
2021/12/22 02:18:52;;;;;;;14.57;8.80;;;2.20;77.50;;;;;;5087238;28;20311;-82
2021/12/22 02:21:20;;;;;;;16.95;10.02;;;2.20;77.50;;;;;;5111256;28;20016;-82
2021/12/22 02:23:46;;;;;;;16.75;10.43;;;2.20;77.40;;;;;;5086070;28;20016;-81
2021/12/22 02:26:22;;;;;;;16.20;9.60;;;2.20;77.30;;;;;;5098053;27;20417;-82
2021/12/22 02:28:57;;;;;;;15.45;9.40;;;2.20;77.30;;;;;;5100042;28;20123;-82
2021/12/22 02:31:23;;;;;;;17.17;9.75;;;2.20;77.40;;;;;;5107512;28;20683;-82
2021/12/22 02:33:50;;;;;;;12.68;7.55;;;2.20;77.30;;;;;;5080714;28;20682;-82
2021/12/22 02:38:44;;;;;;;16.92;9.63;;;2.00;77.10;;;;;;5104892;28;20432;-82
2021/12/22 02:41:13;;;;;;;16.33;9.88;;;2.00;77.20;;;;;;5092537;28;20016;-81
2021/12/22 02:43:48;;;;;;;16.20;9.23;;;2.00;77.40;;;;;;5095987;28;20076;-82
2021/12/22 02:46:16;;;;;;;16.02;9.90;;;2.00;77.40;;;;;;5100070;28;20390;-81
2021/12/22 02:48:44;;;;;;;11.80;7.13;;;2.00;77.30;;;;;;5097251;28;20452;-82
2021/12/22 02:51:10;;;;;;;17.77;10.20;;;2.00;77.30;;;;;;5093626;28;20439;-81
2021/12/22 02:58:58;;;;;;;13.80;8.00;;;2.00;77.30;;;;;;5095910;28;20024;-81
2021/12/22 03:04:05;;;;;;;15.02;9.18;;;1.90;77.20;;;;;;5092189;28;20039;-81
2021/12/22 03:06:36;;;;;;;17.60;11.30;;;1.90;77.30;;;;;;5088949;28;20027;-81
2021/12/22 03:09:35;;;;;;;17.98;10.30;;;1.80;77.10;;;;;;5081935;28;20307;-81
2021/12/22 03:12:04;;;;;;;13.18;8.25;;;1.70;77.40;;;;;;5070381;28;20088;-81
2021/12/22 03:14:30;;;;;;;16.85;8.93;;;1.70;77.50;;;;;;5088058;28;20031;-80
2021/12/22 03:16:56;;;;;;;15.25;9.25;;;1.80;77.70;;;;;;5099101;28;20398;-80
2021/12/22 03:19:25;;;;;;;16.10;8.90;;;1.80;77.60;;;;;;5088386;28;20059;-81
2021/12/22 03:21:59;;;;;;;16.20;9.65;;;1.80;77.60;;;;;;5106829;28;20100;-80
2021/12/22 03:24:26;;;;;;;12.30;7.53;;;1.70;77.60;;;;;;5095299;28;20046;-80
2021/12/22 03:26:51;;;;;;;16.33;9.65;;;1.70;77.60;;;;;;5089966;28;20471;-80
2021/12/22 03:29:18;;;;;;;12.18;7.25;;;1.70;77.60;;;;;;5090965;28;20032;-81
2021/12/22 03:31:46;;;;;;;10.05;6.55;;;1.70;77.70;;;;;;5091688;28;20020;-81
2021/12/22 03:34:12;;;;;;;14.82;8.75;;;1.80;78.30;;;;;;5079845;28;20487;-82
2021/12/22 03:36:41;;;;;;;17.20;10.15;;;1.80;77.60;;;;;;5074269;28;20034;-81
2021/12/22 03:39:07;;;;;;;13.30;8.30;;;1.70;78.10;;;;;;5080133;28;20087;-82
2021/12/22 03:41:35;;;;;;;12.52;8.10;;;1.80;77.60;;;;;;5070180;28;20017;-82
2021/12/22 03:44:01;;;;;;;13.40;8.30;;;1.80;77.60;;;;;;5079295;28;20020;-82
2021/12/22 03:46:27;;;;;;;16.65;9.77;;;1.80;77.60;;;;;;5071023;28;20382;-82
2021/12/22 03:48:53;;;;;;;12.02;8.05;;;1.70;77.50;;;;;;5078557;28;20020;-81
2021/12/22 03:51:18;;;;;;;16.27;9.85;;;1.70;77.50;;;;;;5077479;28;20107;-82
2021/12/22 03:53:44;;;;;;;15.00;9.27;;;1.60;77.50;;;;;;5088328;28;20035;-81
2021/12/22 03:56:09;;;;;;;14.57;8.80;;;1.50;77.60;;;;;;5104501;28;20543;-82
2021/12/22 03:58:35;;;;;;;16.30;9.52;;;1.50;77.70;;;;;;5095290;28;20035;-81
2021/12/22 04:01:01;;;;;;;13.30;8.07;;;1.50;77.90;;;;;;5091398;27;20020;-83
2021/12/22 04:03:30;;;;;;;14.73;8.30;;;1.60;78.10;;;;;;5098774;28;20023;-82
2021/12/22 04:05:57;;;;;;;13.68;7.97;;;1.60;78.50;;;;;;5092315;28;20088;-82
2021/12/22 04:08:22;;;;;;;17.02;10.65;;;1.60;77.90;;;;;;5093496;28;20032;-82
2021/12/22 04:10:49;;;;;;;15.60;9.40;;;1.50;77.70;;;;;;5092975;28;20024;-81
2021/12/22 04:13:15;;;;;;;15.20;9.45;;;1.60;77.90;;;;;;5087985;28;20023;-82
2021/12/22 04:15:42;;;;;;;14.93;8.98;;;1.60;77.90;;;;;;5100995;28;20494;-81
2021/12/22 04:18:08;;;;;;;13.52;8.35;;;1.60;77.80;;;;;;5090669;28;20021;-80
2021/12/22 04:20:34;;;;;;;14.40;8.02;;;1.50;77.80;;;;;;5086724;28;20016;-80
2021/12/22 04:23:00;;;;;;;14.18;8.45;;;1.50;77.90;;;;;;5091882;28;20103;-80
2021/12/22 04:25:27;;;;;;;12.52;8.10;;;1.50;78.10;;;;;;5102485;28;20024;-81
2021/12/22 04:27:56;;;;;;;11.18;6.28;;;1.60;78.00;;;;;;5090842;28;20125;-80
2021/12/22 04:30:23;;;;;;;17.13;10.25;;;1.60;77.90;;;;;;5084717;28;20051;-80
2021/12/22 04:32:49;;;;;;;16.05;9.30;;;1.50;77.70;;;;;;5083035;28;20132;-80
2021/12/22 04:35:15;;;;;;;15.57;9.32;;;1.50;77.80;;;;;;5095262;28;20127;-80
2021/12/22 04:37:40;;;;;;;12.20;7.38;;;1.50;77.90;;;;;;5095252;28;20043;-83
2021/12/22 04:40:07;;;;;;;12.00;7.28;;;1.50;77.90;;;;;;5097421;28;20020;-84
2021/12/22 04:42:32;;;;;;;17.30;9.05;;;1.50;77.80;;;;;;5093245;28;20386;-84
2021/12/22 04:45:00;;;;;;;16.40;10.23;;;1.50;77.80;;;;;;5093795;28;20020;-83
2021/12/22 04:47:26;;;;;;;17.40;10.52;;;1.50;77.60;;;;;;5093715;28;20371;-83
2021/12/22 04:49:51;;;;;;;14.43;8.70;;;1.40;77.70;;;;;;5085953;28;20026;-81
2021/12/22 04:52:20;;;;;;;15.60;9.57;;;1.40;77.80;;;;;;5088982;28;20036;-82
2021/12/22 04:55:02;;;;;;;12.80;8.60;;;1.30;77.80;;;;;;5082086;28;20371;-82
2021/12/22 04:57:28;;;;;;;14.02;8.35;;;1.30;77.90;;;;;;5091836;28;20051;-82
2021/12/22 04:59:54;;;;;;;17.55;10.90;;;1.30;78.10;;;;;;5096553;28;20035;-83
2021/12/22 05:02:19;;;;;;;13.90;8.35;;;1.20;78.00;;;;;;5096569;28;20025;-83
2021/12/22 05:04:45;;;;;;;18.63;10.63;;;1.10;78.10;;;;;;5095901;28;20389;-80
2021/12/22 05:07:10;;;;;;;18.55;9.70;;;1.10;78.10;;;;;;5098248;28;20490;-81
2021/12/22 05:09:36;;;;;;;18.10;10.27;;;1.00;78.10;;;;;;5090164;28;20035;-81
2021/12/22 05:12:01;;;;;;;19.17;11.32;;;1.00;78.00;;;;;;5098099;28;20024;-82
2021/12/22 05:14:27;;;;;;;16.15;9.43;;;0.90;78.00;;;;;;5080741;28;20029;-81
2021/12/22 05:16:58;;;;;;;18.15;10.90;;;0.90;78.30;;;;;;5100919;28;20436;-80
2021/12/22 05:19:24;;;;;;;19.20;11.67;;;0.90;78.20;;;;;;5079889;28;20029;-81
2021/12/22 05:21:50;;;;;;;17.33;11.13;;;0.80;78.10;;;;;;5070266;28;20082;-82
2021/12/22 05:24:15;;;;;;;17.00;10.48;;;0.80;78.40;;;;;;5084362;28;20027;-82
2021/12/22 05:26:41;;;;;;;13.85;8.85;;;0.80;78.50;;;;;;5089565;28;20048;-82
2021/12/22 05:29:07;;;;;;;16.23;10.27;;;0.80;78.30;;;;;;5088710;28;20038;-82
2021/12/22 05:31:33;;;;;;;18.70;10.65;;;0.80;78.40;;;;;;5089534;28;20027;-81
2021/12/22 05:33:58;;;;;;;16.27;9.20;;;0.80;78.30;;;;;;5072642;28;20027;-81
2021/12/22 05:36:24;;;;;;;12.02;7.25;;;0.80;78.40;;;;;;5072230;28;20596;-81
2021/12/22 05:38:50;;;;;;;17.42;9.80;;;0.80;78.30;;;;;;5068336;28;20474;-82
2021/12/22 05:41:16;;;;;;;17.65;10.70;;;0.80;78.40;;;;;;5070162;28;20021;-78
2021/12/22 05:43:41;;;;;;;17.63;10.13;;;0.80;78.50;;;;;;5068748;28;20040;-83
2021/12/22 05:46:07;;;;;;;15.90;8.88;;;0.90;78.60;;;;;;5087933;28;20107;-81
2021/12/22 05:48:32;;;;;;;13.27;7.80;;;0.90;78.60;;;;;;5087475;28;20379;-83
2021/12/22 05:51:00;;;;;;;17.67;10.13;;;0.90;78.50;;;;;;5095935;28;20155;-84
2021/12/22 05:53:26;;;;;;;19.90;11.88;;;0.90;78.60;;;;;;5092775;28;20359;-84
2021/12/22 05:55:52;;;;;;;18.20;10.52;;;0.90;78.60;;;;;;5090002;28;20023;-85
2021/12/22 05:58:18;;;;;;;16.63;9.90;;;1.00;78.60;;;;;;5082307;28;20051;-85
2021/12/22 06:00:44;;;;;;;19.90;12.05;;;0.90;78.70;;;;;;5094728;28;20100;-83
2021/12/22 06:03:12;;;;;;;19.25;12.18;;;1.00;78.70;;;;;;5094294;28;20370;-84
2021/12/22 06:05:41;;;;;;;16.58;10.93;;;0.80;78.60;;;;;;5093920;28;20571;-82
2021/12/22 06:08:06;;;;;;;15.23;9.27;;;0.80;78.70;;;;;;5094534;28;20034;-79
2021/12/22 06:10:34;;;;;;;20.58;10.75;;;0.80;78.90;;;;;;5094842;28;20050;-82
2021/12/22 06:13:04;;;;;;;18.67;11.82;;;0.60;78.60;;;;;;5094353;28;20034;-82
2021/12/22 06:15:31;;;;;;;18.45;10.07;;;0.40;78.40;;;;;;5094883;28;20021;-82
2021/12/22 06:17:58;;;;;;;19.95;11.90;;;0.40;78.60;;;;;;5092679;28;20028;-84
2021/12/22 06:20:24;;;;;;;18.55;11.65;;;0.20;78.50;;;;;;5099512;28;20020;-83
2021/12/22 06:22:50;;;;;;;22.35;13.55;;;0.10;78.60;;;;;;5104773;28;20048;-83
2021/12/22 06:25:16;;;;;;;19.60;11.70;;;0.00;78.40;;;;;;5086709;28;20351;-79
2021/12/22 06:27:42;;;;;;;14.63;8.45;;;-0.20;78.70;;;;;;5095817;28;20032;-79
2021/12/22 06:30:09;;;;;;;20.73;11.32;;;-0.30;78.90;;;;;;5089127;28;20105;-81
2021/12/22 06:32:34;;;;;;;20.88;11.52;;;-0.30;79.10;;;;;;5090356;28;20100;-80
2021/12/22 06:35:00;;;;;;;18.40;10.55;;;-0.40;79.30;;;;;;5088215;27;20103;-80
2021/12/22 06:37:25;;;;;;;18.25;11.00;;;-0.30;79.30;;;;;;5091586;28;20040;-80
2021/12/22 06:39:51;;;;;;;17.05;10.75;;;-0.40;79.30;;;;;;5102631;28;20051;-82
2021/12/22 06:42:17;;;;;;;22.55;12.93;;;-0.30;79.60;;;;;;5092163;28;20024;-78
2021/12/22 06:44:42;;;;;;;20.10;10.50;;;-0.40;79.50;;;;;;5087852;28;20426;-78
2021/12/22 06:47:10;;;;;;;24.05;13.05;;;-0.40;79.60;;;;;;5094170;28;20517;-79
2021/12/22 06:49:36;;;;;;;25.83;14.32;;;-0.50;79.60;;;;;;5088165;28;20111;-79
2021/12/22 06:52:02;;;;;;;23.77;14.15;;;-0.50;79.80;;;;;;5098429;28;20038;-79
2021/12/22 06:54:28;;;;;;;20.73;11.52;;;-0.60;79.90;;;;;;5100223;28;20020;-79
2021/12/22 06:56:53;;;;;;;20.77;11.35;;;-0.50;80.10;;;;;;5090001;28;20054;-79
2021/12/22 06:59:19;;;;;;;15.07;9.30;;;-0.60;80.00;;;;;;5085593;28;20103;-79
2021/12/22 07:01:45;;;;;;;18.52;11.05;;;-0.60;80.00;;;;;;5095077;28;20032;-81
2021/12/22 07:04:11;;;;;;;19.88;10.77;;;-0.50;80.10;;;;;;5087823;28;20016;-80
2021/12/22 07:06:36;;;;;;;19.70;10.88;;;-0.50;80.10;;;;;;5098003;28;20398;-81
2021/12/22 07:09:04;;;;;;;17.13;10.35;;;-0.50;80.00;;;;;;5097702;28;20026;-81
2021/12/22 07:11:30;;;;;;;21.75;12.40;;;-0.50;80.00;;;;;;5096359;28;20496;-82
2021/12/22 07:13:56;;;;;;;23.13;12.68;;;-0.50;79.90;;;;;;5089189;28;20062;-80
2021/12/22 07:16:21;;;;;;;18.17;10.02;;;-0.40;80.00;;;;;;5083520;28;20021;-80
2021/12/22 07:18:47;;;;;;;19.45;9.95;;;-0.40;79.90;;;;;;5090914;28;20150;-80
2021/12/22 07:21:12;;;;;;;22.02;12.73;;;-0.50;79.80;;;;;;5088457;28;20047;-81
2021/12/22 07:23:38;;;;;;;22.48;13.43;;;-0.50;79.90;;;;;;5083836;28;20032;-79
2021/12/22 07:26:03;;;;;;;19.88;11.50;;;-0.50;79.90;;;;;;5080049;28;20048;-80
2021/12/22 07:28:29;;;;;;;15.68;9.82;;;-0.50;80.00;;;;;;5093571;28;20032;-80
2021/12/22 07:30:55;;;;;;;21.30;10.93;;;-0.40;80.10;;;;;;5084859;28;20486;-80
2021/12/22 07:33:20;;;;;;;16.63;9.48;;;-0.30;80.00;;;;;;5098576;28;20071;-79
2021/12/22 07:35:50;;;;;;;15.48;9.15;;;-0.40;79.80;;;;;;5086382;28;20031;-81
2021/12/22 07:38:51;;;;;;;15.20;9.40;;;-0.40;79.90;;;;;;5090208;28;20494;-81
2021/12/22 07:41:16;;;;;;;14.52;7.80;;;-0.30;80.00;;;;;;5084800;28;20012;-82
2021/12/22 07:43:42;;;;;;;18.20;10.32;;;-0.20;79.70;;;;;;5094041;28;20117;-81
2021/12/22 07:46:08;;;;;;;18.95;10.18;;;-0.20;79.50;;;;;;5087374;28;20029;-82
2021/12/22 07:48:35;;;;;;;16.25;9.32;;;-0.20;79.40;;;;;;5088491;28;20166;-82
2021/12/22 07:51:01;;;;;;;16.95;9.73;;;-0.20;79.40;;;;;;5090154;28;20020;-83
2021/12/22 07:53:27;;;;;;;16.67;10.02;;;-0.20;79.40;;;;;;5090394;28;20028;-81
2021/12/22 07:55:53;;;;;;;14.60;8.20;;;-0.20;79.40;;;;;;5099098;28;20035;-80
2021/12/22 07:58:20;;;;;;;10.98;6.63;;;-0.10;79.60;;;;;;5089566;28;20032;-81
2021/12/22 08:00:46;;;;;;;18.40;10.60;;;-0.20;79.50;;;;;;5084609;28;20013;-81
2021/12/22 08:03:12;;;;;;;18.40;9.73;;;-0.20;79.50;;;;;;5080454;28;20115;-84
2021/12/22 08:05:38;;;;;;;11.98;7.25;;;-0.10;79.50;;;;;;5090561;28;20018;-84
2021/12/22 08:08:04;;;;;;;13.07;7.32;;;-0.10;79.40;;;;;;5086053;28;20024;-80
2021/12/22 08:10:30;;;;;;;17.13;9.73;;;-0.10;79.30;;;;;;5086058;28;20118;-81
2021/12/22 08:12:56;;;;;;;17.77;9.88;;;-0.20;79.30;;;;;;5097995;28;20504;-81
2021/12/22 08:15:21;;;;;;;21.80;12.60;;;-0.20;79.30;;;;;;5077878;28;20039;-85
2021/12/22 08:17:47;;;;;;;19.75;10.63;;;-0.20;79.30;;;;;;5088220;28;20032;-83
2021/12/22 08:20:13;;;;;;;16.15;8.38;;;-0.20;79.50;;;;;;5081663;28;20119;-83
2021/12/22 08:22:38;;;;;;;16.35;10.10;;;-0.10;79.60;;;;;;5093946;28;20107;-81
2021/12/22 08:25:06;;;;;;;12.57;7.70;;;-0.10;79.40;;;;;;5085867;28;20020;-85
2021/12/22 08:27:32;;;;;;;15.57;7.80;;;-0.10;79.50;;;;;;5089676;28;20012;-83
2021/12/22 08:29:57;;;;;;;14.55;9.00;;;-0.10;79.50;;;;;;5100163;28;20073;-82
2021/12/22 08:32:23;;;;;;;14.43;8.50;;;-0.10;79.50;;;;;;5094417;28;20406;-84
2021/12/22 08:34:54;;;;;;;19.30;11.73;;;-0.10;79.40;;;;;;5079552;28;20388;-81
2021/12/22 08:40:07;;;;;;;16.52;9.95;;;-0.20;79.60;;;;;;5083862;28;20417;-84
2021/12/22 08:42:32;;;;;;;12.73;7.75;;;-0.20;79.60;;;;;;5088374;28;20467;-84
2021/12/22 08:44:58;;;;;;;15.05;8.80;;;-0.10;79.70;;;;;;5094002;28;20084;-84
2021/12/22 08:47:24;;;;;;;18.17;10.18;;;0.10;79.70;;;;;;5077885;28;20027;-83
2021/12/22 08:49:49;;;;;;;14.20;8.32;;;0.10;79.50;;;;;;5086191;28;20055;-82
2021/12/22 08:52:15;;;;;;;19.05;10.35;;;0.10;79.40;;;;;;5079031;28;20130;-81
2021/12/22 08:54:41;;;;;;;13.50;8.10;;;0.10;79.40;;;;;;5088874;28;20078;-82
2021/12/22 08:57:07;;;;;;;17.65;9.68;;;0.20;79.50;;;;;;5092412;28;20498;-80
2021/12/22 08:59:32;;;;;;;20.63;12.32;;;0.10;79.40;;;;;;5082006;28;20031;-83
2021/12/22 09:01:58;;;;;;;20.48;12.07;;;0.10;79.40;;;;;;5093138;28;20207;-88
2021/12/22 09:04:24;;;;;;;17.40;10.00;;;0.00;79.50;;;;;;5090949;28;20024;-87
2021/12/22 09:06:50;;;;;;;17.02;9.13;;;0.00;79.70;;;;;;5089312;28;20032;-82
2021/12/22 09:09:18;;;;;;;16.15;9.82;;;0.00;79.90;;;;;;5084099;28;20051;-80
2021/12/22 09:11:44;;;;;;;18.55;11.23;;;0.00;79.90;;;;;;5078338;28;20020;-82
2021/12/22 09:14:10;;;;;;;18.38;10.25;;;0.00;80.00;;;;;;5082189;28;20028;-82
2021/12/22 09:16:38;;;;;;;20.20;11.93;;;0.00;80.10;;;;;;5080615;28;20428;-79
2021/12/22 09:19:04;;;;;;;17.65;9.63;;;0.00;80.80;;;;;;5082628;28;20389;-80
2021/12/22 09:21:30;;;;;;;21.40;11.57;;;0.00;80.30;;;;;;5088616;28;20521;-80
2021/12/22 09:23:56;;;;;;;17.05;9.02;;;-0.10;80.40;;;;;;5095324;28;20130;-80
2021/12/22 09:26:22;;;;;;;15.15;8.43;;;0.10;80.70;;;;;;5087132;28;20115;-80
2021/12/22 09:28:48;;;;;;;12.98;7.10;;;0.10;80.50;;;;;;5083349;28;20603;-80
2021/12/22 09:31:13;;;;;;;18.35;10.88;;;0.20;80.40;;;;;;5091755;28;20035;-78
2021/12/22 09:33:40;;;;;;;18.25;10.65;;;0.20;80.20;;;;;;5083919;28;20517;-80
2021/12/22 09:36:07;;;;;;;15.90;9.13;;;0.20;80.20;;;;;;5083246;28;20822;-80
2021/12/22 09:38:34;;;;;;;11.07;6.47;;;0.30;80.10;;;;;;5089587;28;20078;-80
2021/12/22 09:41:00;;;;;;;11.63;7.38;;;0.40;80.00;;;;;;5092622;27;20059;-81
2021/12/22 09:43:27;;;;;;;14.10;7.78;;;0.40;79.80;;;;;;5083546;28;20032;-80
2021/12/22 09:45:58;;;;;;;12.23;7.07;;;0.50;79.80;;;;;;5093146;28;20015;-87
2021/12/22 09:48:35;;;;;;;16.05;8.40;;;0.50;79.70;;;;;;5082941;28;20024;-80
2021/12/22 09:53:31;;;;;;;14.88;7.78;;;0.50;79.90;;;;;;5081328;28;20040;-79
2021/12/22 09:55:58;;;;;;;13.55;7.85;;;0.60;79.90;;;;;;5076876;28;20036;-78
2021/12/22 09:58:25;;;;;;;15.98;9.00;;;0.70;79.70;;;;;;5084637;28;20506;-79
2021/12/22 10:00:51;;;;;;;13.57;7.85;;;0.70;79.60;;;;;;5084375;28;20042;-79
2021/12/22 10:03:17;;;;;;;16.17;10.07;;;0.70;79.50;;;;;;5083556;28;20099;-78
2021/12/22 10:05:44;;;;;;;16.63;9.93;;;0.60;79.40;;;;;;5085308;28;20577;-80
2021/12/22 10:08:10;;;;;;;14.38;8.90;;;0.60;79.60;;;;;;5099882;27;20445;-80
2021/12/22 10:10:48;;;;;;;13.48;8.60;;;0.60;79.70;;;;;;5085119;28;20089;-81
2021/12/22 10:13:20;;;;;;;12.93;7.47;;;0.60;79.90;;;;;;5085562;28;20027;-81
2021/12/22 10:15:46;;;;;;;14.23;9.15;;;0.70;80.00;;;;;;5090477;28;20028;-81
2021/12/22 10:18:16;;;;;;;17.02;10.07;;;0.70;80.00;;;;;;5084703;28;20045;-80
2021/12/22 10:20:44;;;;;;;14.48;9.48;;;0.70;80.20;;;;;;5085700;28;20024;-80
2021/12/22 10:23:26;;;;;;;15.60;9.25;;;0.70;80.20;;;;;;5081338;28;20127;-78
2021/12/22 10:26:02;;;;;;;15.35;9.02;;;0.80;80.30;;;;;;5085373;28;20023;-78
2021/12/22 10:28:31;;;;;;;15.52;8.27;;;0.80;80.20;;;;;;5084526;28;20111;-82
2021/12/22 10:30:58;;;;;;;10.70;7.07;;;0.80;80.10;;;;;;5083215;28;20020;-84
2021/12/22 10:33:30;;;;;;;14.52;8.52;;;0.90;80.00;;;;;;5101247;27;20464;-82
2021/12/22 10:36:01;;;;;;;13.63;8.68;;;1.00;80.00;;;;;;5087965;28;20116;-78
2021/12/22 10:38:30;;;;;;;13.95;8.57;;;0.90;79.90;;;;;;5080892;28;20115;-84
2021/12/22 10:41:02;;;;;;;11.23;7.05;;;0.90;80.00;;;;;;5086547;28;20019;-80
2021/12/22 10:43:30;;;;;;;16.08;9.05;;;1.00;80.00;;;;;;5088665;28;20043;-80
2021/12/22 10:46:00;;;;;;;17.45;9.48;;;1.00;80.00;;;;;;5086238;28;20038;-79
2021/12/22 10:51:27;;;;;;;14.05;9.07;;;1.00;80.10;;;;;;5076799;28;20434;-77
2021/12/22 10:53:53;;;;;;;14.18;9.18;;;1.00;80.20;;;;;;5081994;28;20501;-78
2021/12/22 10:56:26;;;;;;;12.10;7.57;;;1.00;80.20;;;;;;5081403;28;20449;-78
2021/12/22 10:59:05;;;;;;;14.93;9.95;;;0.90;80.30;;;;;;5083908;28;20035;-78
2021/12/22 11:01:34;;;;;;;13.23;8.63;;;1.00;80.40;;;;;;5077840;28;20036;-81
2021/12/22 11:04:04;;;;;;;12.20;7.93;;;1.00;80.30;;;;;;5079876;28;20025;-83
2021/12/22 11:06:33;;;;;;;14.73;10.50;;;1.10;80.30;;;;;;5079277;28;20146;-80
2021/12/22 11:09:10;;;;;;;12.70;8.25;;;1.00;80.10;;;;;;5076824;28;20035;-83
2021/12/22 11:11:37;;;;;;;14.15;9.48;;;1.10;80.20;;;;;;5083142;28;20074;-83
2021/12/22 11:14:09;;;;;;;15.23;9.40;;;1.10;80.20;;;;;;5084753;28;20645;-84
2021/12/22 11:17:01;;;;;;;12.57;8.25;;;1.00;80.20;;;;;;5081192;28;20102;-84
2021/12/22 11:19:54;;;;;;;13.17;8.33;;;1.20;80.30;;;;;;5080969;28;20059;-83
2021/12/22 11:22:35;;;;;;;14.13;9.02;;;1.20;80.20;;;;;;5077025;28;20290;-82
2021/12/22 11:25:01;;;;;;;10.73;7.05;;;1.20;80.20;;;;;;5084156;28;20020;-82
2021/12/22 11:27:27;;;;;;;13.65;7.75;;;1.30;80.10;;;;;;5073899;28;20028;-78
2021/12/22 11:29:55;;;;;;;12.43;8.50;;;1.30;80.00;;;;;;5076278;28;20024;-77
2021/12/22 11:32:26;;;;;;;12.75;7.93;;;1.40;80.00;;;;;;5078466;28;20107;-79
2021/12/22 11:34:54;;;;;;;11.85;8.38;;;1.50;80.00;;;;;;5078496;28;20042;-79
2021/12/22 11:37:22;;;;;;;15.07;8.93;;;1.50;79.80;;;;;;5079700;28;20568;-79
2021/12/22 11:39:48;;;;;;;14.77;9.75;;;1.50;79.80;;;;;;5081214;28;20137;-79
2021/12/22 11:42:16;;;;;;;15.98;10.15;;;1.40;79.70;;;;;;5074838;28;20698;-78
2021/12/22 11:44:48;;;;;;;11.35;6.93;;;1.40;79.80;;;;;;5074512;28;20065;-79
2021/12/22 11:47:16;;;;;;;13.05;7.65;;;1.60;80.00;;;;;;5077572;28;20028;-80
2021/12/22 11:49:53;;;;;;;15.25;9.20;;;1.60;79.90;;;;;;5078011;28;20099;-79
2021/12/22 11:52:37;;;;;;;12.38;7.80;;;1.60;79.80;;;;;;5078395;28;20034;-80
2021/12/22 11:55:19;;;;;;;15.30;9.35;;;1.60;79.90;;;;;;5079720;28;20101;-80
2021/12/22 11:57:47;;;;;;;16.40;9.77;;;1.60;79.90;;;;;;5091857;28;20036;-80
2021/12/22 12:00:34;;;;;;;15.77;10.02;;;1.60;80.00;;;;;;5081553;28;20073;-81
2021/12/22 12:03:20;;;;;;;12.20;8.70;;;1.60;80.00;;;;;;5081280;28;20093;-79
2021/12/22 12:06:11;;;;;;;11.45;7.57;;;1.80;80.10;;;;;;5088779;28;20024;-80
2021/12/22 12:08:50;;;;;;;11.40;7.72;;;1.80;79.80;;;;;;5096562;27;20032;-81
2021/12/22 12:11:21;;;;;;;17.58;10.10;;;1.80;79.70;;;;;;5078554;28;20032;-79
2021/12/22 12:13:56;;;;;;;16.85;10.30;;;1.80;79.50;;;;;;5076615;28;20115;-78
2021/12/22 12:22:24;;;;;;;11.13;7.78;;;1.90;79.40;;;;;;5077503;28;20039;-78
2021/12/22 12:25:11;;;;;;;14.70;9.93;;;2.00;79.40;;;;;;5076254;28;20043;-81
2021/12/22 12:27:53;;;;;;;14.65;8.82;;;2.00;79.20;;;;;;5087533;28;20028;-77
2021/12/22 12:30:44;;;;;;;11.98;8.15;;;1.90;79.10;;;;;;5074394;28;20032;-78
2021/12/22 12:33:11;;;;;;;11.68;7.32;;;1.90;79.30;;;;;;5087262;28;20032;-81
2021/12/22 12:35:48;;;;;;;12.32;7.75;;;2.00;79.30;;;;;;5083457;28;20025;-81
2021/12/22 12:38:15;;;;;;;10.98;7.85;;;2.00;79.20;;;;;;5072543;28;20042;-77
2021/12/22 12:43:44;;;;;;;13.68;9.40;;;2.10;79.00;;;;;;5074665;28;20041;-77
2021/12/22 12:46:40;;;;;;;14.98;10.00;;;2.10;79.00;;;;;;5079237;28;20629;-78
2021/12/22 12:49:07;;;;;;;14.50;9.32;;;2.10;78.90;;;;;;5087250;28;20118;-81
2021/12/22 12:51:37;;;;;;;14.13;9.25;;;2.00;78.70;;;;;;5088446;28;20556;-81
2021/12/22 12:54:08;;;;;;;11.45;7.38;;;2.00;78.70;;;;;;5086887;28;20032;-81
2021/12/22 12:56:35;;;;;;;14.25;8.38;;;2.00;78.70;;;;;;5082832;28;20482;-81
2021/12/22 12:59:09;;;;;;;12.77;8.70;;;2.00;78.70;;;;;;5088878;28;20151;-82
2021/12/22 13:01:50;;;;;;;13.80;8.60;;;2.00;78.60;;;;;;5087007;28;20032;-81
2021/12/22 13:04:23;;;;;;;13.02;9.23;;;2.10;78.70;;;;;;5085548;28;20394;-78
2021/12/22 13:06:54;;;;;;;11.35;7.80;;;2.10;78.60;;;;;;5082176;28;20490;-76
2021/12/22 13:09:24;;;;;;;12.10;7.72;;;2.10;78.50;;;;;;5076736;28;20032;-76
2021/12/22 13:13:12;;;;;;;12.13;8.57;;;2.10;78.40;;;;;;5089408;28;20051;-77
2021/12/22 13:18:10;;;;;;;12.73;8.00;;;2.10;78.30;;;;;;5085472;28;20433;-76
2021/12/22 13:20:38;;;;;;;16.67;10.00;;;2.10;78.40;;;;;;5086306;28;20486;-78
2021/12/22 13:23:08;;;;;;;14.95;9.43;;;2.10;78.30;;;;;;5090142;28;20160;-78
2021/12/22 13:25:36;;;;;;;13.32;9.32;;;2.10;78.40;;;;;;5080036;28;20024;-78